sensor_id;sensor_type;location;lat;lon;timestamp;P1;durP1;ratioP1;P2;durP2;ratioP2
65971;SDS011;52726;48.852;9.152;2022-09-03T00:01:26;1.17;;;1.00;;
65971;SDS011;52726;48.852;9.152;2022-09-03T00:03:58;1.25;;;1.15;;
65971;SDS011;52726;48.852;9.152;2022-09-03T00:06:34;1.33;;;1.23;;
65971;SDS011;52726;48.852;9.152;2022-09-03T00:12:00;2.03;;;1.08;;
65971;SDS011;52726;48.852;9.152;2022-09-03T00:14:40;1.98;;;1.30;;
65971;SDS011;52726;48.852;9.152;2022-09-03T00:17:12;1.75;;;1.08;;
65971;SDS011;52726;48.852;9.152;2022-09-03T00:19:43;3.40;;;1.35;;
65971;SDS011;52726;48.852;9.152;2022-09-03T00:22:17;1.52;;;1.23;;
65971;SDS011;52726;48.852;9.152;2022-09-03T00:24:45;2.95;;;1.77;;
65971;SDS011;52726;48.852;9.152;2022-09-03T00:27:23;3.15;;;1.20;;
65971;SDS011;52726;48.852;9.152;2022-09-03T00:30:01;1.02;;;1.02;;
65971;SDS011;52726;48.852;9.152;2022-09-03T00:32:38;2.30;;;1.27;;
65971;SDS011;52726;48.852;9.152;2022-09-03T00:35:08;1.15;;;1.10;;
65971;SDS011;52726;48.852;9.152;2022-09-03T00:37:38;1.20;;;1.10;;
65971;SDS011;52726;48.852;9.152;2022-09-03T00:40:04;1.92;;;1.00;;
65971;SDS011;52726;48.852;9.152;2022-09-03T00:42:44;2.10;;;1.05;;
65971;SDS011;52726;48.852;9.152;2022-09-03T00:46:04;0.98;;;0.88;;
65971;SDS011;52726;48.852;9.152;2022-09-03T00:48:18;2.60;;;1.10;;
65971;SDS011;52726;48.852;9.152;2022-09-03T00:53:48;1.17;;;1.08;;
65971;SDS011;52726;48.852;9.152;2022-09-03T00:56:29;1.10;;;1.00;;
65971;SDS011;52726;48.852;9.152;2022-09-03T00:59:13;2.75;;;1.27;;
65971;SDS011;52726;48.852;9.152;2022-09-03T01:04:27;1.33;;;1.23;;
65971;SDS011;52726;48.852;9.152;2022-09-03T01:10:29;7.03;;;1.15;;
65971;SDS011;52726;48.852;9.152;2022-09-03T01:13:19;2.50;;;1.38;;
65971;SDS011;52726;48.852;9.152;2022-09-03T01:29:30;1.40;;;1.23;;
65971;SDS011;52726;48.852;9.152;2022-09-03T01:32:06;2.17;;;1.30;;
65971;SDS011;52726;48.852;9.152;2022-09-03T01:40:34;1.10;;;1.00;;
65971;SDS011;52726;48.852;9.152;2022-09-03T01:43:44;1.70;;;1.30;;
65971;SDS011;52726;48.852;9.152;2022-09-03T01:46:23;2.28;;;1.50;;
65971;SDS011;52726;48.852;9.152;2022-09-03T01:48:52;2.92;;;1.48;;
65971;SDS011;52726;48.852;9.152;2022-09-03T01:51:35;2.95;;;1.30;;
65971;SDS011;52726;48.852;9.152;2022-09-03T01:57:23;1.05;;;1.02;;
65971;SDS011;52726;48.852;9.152;2022-09-03T01:59:52;1.77;;;1.27;;
65971;SDS011;52726;48.852;9.152;2022-09-03T02:02:32;2.08;;;1.50;;
65971;SDS011;52726;48.852;9.152;2022-09-03T02:05:04;2.58;;;1.13;;
65971;SDS011;52726;48.852;9.152;2022-09-03T02:07:49;1.50;;;1.30;;
65971;SDS011;52726;48.852;9.152;2022-09-03T02:11:06;2.58;;;1.13;;
65971;SDS011;52726;48.852;9.152;2022-09-03T02:13:12;4.05;;;1.45;;
65971;SDS011;52726;48.852;9.152;2022-09-03T02:15:44;2.72;;;1.27;;
65971;SDS011;52726;48.852;9.152;2022-09-03T02:18:13;1.00;;;1.00;;
65971;SDS011;52726;48.852;9.152;2022-09-03T02:23:08;2.20;;;1.35;;
65971;SDS011;52726;48.852;9.152;2022-09-03T02:25:38;2.40;;;1.30;;
65971;SDS011;52726;48.852;9.152;2022-09-03T02:28:06;2.55;;;1.20;;
65971;SDS011;52726;48.852;9.152;2022-09-03T02:30:33;6.60;;;1.50;;
65971;SDS011;52726;48.852;9.152;2022-09-03T02:32:58;1.35;;;1.25;;
65971;SDS011;52726;48.852;9.152;2022-09-03T02:35:24;1.45;;;1.23;;
65971;SDS011;52726;48.852;9.152;2022-09-03T02:37:49;1.10;;;1.00;;
65971;SDS011;52726;48.852;9.152;2022-09-03T02:40:15;1.50;;;1.13;;
65971;SDS011;52726;48.852;9.152;2022-09-03T02:42:41;0.80;;;0.80;;
65971;SDS011;52726;48.852;9.152;2022-09-03T02:47:40;2.17;;;1.05;;
65971;SDS011;52726;48.852;9.152;2022-09-03T02:50:08;6.38;;;1.58;;
65971;SDS011;52726;48.852;9.152;2022-09-03T02:52:34;1.10;;;1.00;;
65971;SDS011;52726;48.852;9.152;2022-09-03T02:54:59;1.48;;;1.08;;
65971;SDS011;52726;48.852;9.152;2022-09-03T02:57:25;1.00;;;1.00;;
65971;SDS011;52726;48.852;9.152;2022-09-03T02:59:50;1.70;;;1.30;;
65971;SDS011;52726;48.852;9.152;2022-09-03T03:02:15;0.90;;;0.90;;
65971;SDS011;52726;48.852;9.152;2022-09-03T03:04:41;1.20;;;1.10;;
65971;SDS011;52726;48.852;9.152;2022-09-03T03:07:06;1.55;;;0.98;;
65971;SDS011;52726;48.852;9.152;2022-09-03T03:09:32;2.10;;;1.50;;
65971;SDS011;52726;48.852;9.152;2022-09-03T03:11:57;2.40;;;1.42;;
65971;SDS011;52726;48.852;9.152;2022-09-03T03:14:23;3.25;;;1.50;;
65971;SDS011;52726;48.852;9.152;2022-09-03T03:16:49;1.40;;;1.30;;
65971;SDS011;52726;48.852;9.152;2022-09-03T03:19:15;1.70;;;1.30;;
65971;SDS011;52726;48.852;9.152;2022-09-03T03:21:40;2.65;;;1.40;;
65971;SDS011;52726;48.852;9.152;2022-09-03T03:24:06;1.95;;;1.30;;
65971;SDS011;52726;48.852;9.152;2022-09-03T03:26:31;1.48;;;1.30;;
65971;SDS011;52726;48.852;9.152;2022-09-03T03:28:58;1.45;;;1.20;;
65971;SDS011;52726;48.852;9.152;2022-09-03T03:31:25;2.22;;;1.38;;
65971;SDS011;52726;48.852;9.152;2022-09-03T03:33:58;1.30;;;1.15;;
65971;SDS011;52726;48.852;9.152;2022-09-03T03:36:26;1.55;;;1.40;;
65971;SDS011;52726;48.852;9.152;2022-09-03T03:38:54;1.15;;;1.10;;
65971;SDS011;52726;48.852;9.152;2022-09-03T03:41:33;2.35;;;1.20;;
65971;SDS011;52726;48.852;9.152;2022-09-03T03:44:04;1.15;;;1.10;;
65971;SDS011;52726;48.852;9.152;2022-09-03T03:46:32;1.33;;;1.25;;
65971;SDS011;52726;48.852;9.152;2022-09-03T03:48:59;1.58;;;1.30;;
65971;SDS011;52726;48.852;9.152;2022-09-03T03:51:25;3.95;;;1.40;;
65971;SDS011;52726;48.852;9.152;2022-09-03T03:53:52;2.80;;;1.20;;
65971;SDS011;52726;48.852;9.152;2022-09-03T03:56:20;1.65;;;1.27;;
65971;SDS011;52726;48.852;9.152;2022-09-03T03:58:45;1.88;;;1.70;;
65971;SDS011;52726;48.852;9.152;2022-09-03T04:03:42;2.45;;;1.15;;
65971;SDS011;52726;48.852;9.152;2022-09-03T04:06:08;1.88;;;1.20;;
65971;SDS011;52726;48.852;9.152;2022-09-03T04:08:39;1.63;;;1.40;;
65971;SDS011;52726;48.852;9.152;2022-09-03T04:11:06;1.50;;;1.40;;
65971;SDS011;52726;48.852;9.152;2022-09-03T04:13:38;3.05;;;1.30;;
65971;SDS011;52726;48.852;9.152;2022-09-03T04:18:30;4.70;;;1.35;;
65971;SDS011;52726;48.852;9.152;2022-09-03T04:21:06;4.45;;;1.40;;
65971;SDS011;52726;48.852;9.152;2022-09-03T04:23:40;3.35;;;1.30;;
65971;SDS011;52726;48.852;9.152;2022-09-03T04:26:07;3.50;;;1.52;;
65971;SDS011;52726;48.852;9.152;2022-09-03T04:28:35;1.35;;;1.25;;
65971;SDS011;52726;48.852;9.152;2022-09-03T04:31:01;3.63;;;1.52;;
65971;SDS011;52726;48.852;9.152;2022-09-03T04:33:28;2.85;;;1.40;;
65971;SDS011;52726;48.852;9.152;2022-09-03T04:36:11;2.83;;;1.40;;
65971;SDS011;52726;48.852;9.152;2022-09-03T04:38:39;4.28;;;1.63;;
65971;SDS011;52726;48.852;9.152;2022-09-03T04:41:07;2.38;;;1.50;;
65971;SDS011;52726;48.852;9.152;2022-09-03T04:43:33;2.70;;;1.40;;
65971;SDS011;52726;48.852;9.152;2022-09-03T04:45:59;2.25;;;1.60;;
65971;SDS011;52726;48.852;9.152;2022-09-03T04:48:27;2.53;;;1.63;;
65971;SDS011;52726;48.852;9.152;2022-09-03T04:50:53;1.60;;;1.30;;
65971;SDS011;52726;48.852;9.152;2022-09-03T04:53:20;7.85;;;1.52;;
65971;SDS011;52726;48.852;9.152;2022-09-03T04:55:46;1.92;;;1.48;;
65971;SDS011;52726;48.852;9.152;2022-09-03T04:58:12;2.15;;;1.40;;
65971;SDS011;52726;48.852;9.152;2022-09-03T05:00:37;1.55;;;1.40;;
65971;SDS011;52726;48.852;9.152;2022-09-03T05:03:03;2.88;;;1.33;;
65971;SDS011;52726;48.852;9.152;2022-09-03T05:05:29;5.68;;;1.38;;
65971;SDS011;52726;48.852;9.152;2022-09-03T05:08:04;1.52;;;1.30;;
65971;SDS011;52726;48.852;9.152;2022-09-03T05:10:31;4.85;;;1.83;;
65971;SDS011;52726;48.852;9.152;2022-09-03T05:12:59;1.55;;;1.45;;
65971;SDS011;52726;48.852;9.152;2022-09-03T05:15:25;2.83;;;1.70;;
65971;SDS011;52726;48.852;9.152;2022-09-03T05:17:54;3.80;;;1.60;;
65971;SDS011;52726;48.852;9.152;2022-09-03T05:20:20;2.42;;;1.75;;
65971;SDS011;52726;48.852;9.152;2022-09-03T05:22:46;2.47;;;1.80;;
65971;SDS011;52726;48.852;9.152;2022-09-03T05:25:12;4.53;;;1.85;;
65971;SDS011;52726;48.852;9.152;2022-09-03T05:27:37;2.20;;;1.50;;
65971;SDS011;52726;48.852;9.152;2022-09-03T05:30:03;2.63;;;1.52;;
65971;SDS011;52726;48.852;9.152;2022-09-03T05:32:29;2.10;;;1.45;;
65971;SDS011;52726;48.852;9.152;2022-09-03T05:34:55;3.13;;;1.48;;
65971;SDS011;52726;48.852;9.152;2022-09-03T05:37:20;2.22;;;1.67;;
65971;SDS011;52726;48.852;9.152;2022-09-03T05:39:47;3.45;;;2.03;;
65971;SDS011;52726;48.852;9.152;2022-09-03T05:42:12;5.03;;;1.67;;
65971;SDS011;52726;48.852;9.152;2022-09-03T05:44:39;2.22;;;1.77;;
65971;SDS011;52726;48.852;9.152;2022-09-03T05:47:04;4.43;;;1.70;;
65971;SDS011;52726;48.852;9.152;2022-09-03T05:49:30;4.15;;;2.03;;
65971;SDS011;52726;48.852;9.152;2022-09-03T05:51:55;4.57;;;2.00;;
65971;SDS011;52726;48.852;9.152;2022-09-03T05:54:21;1.95;;;1.48;;
65971;SDS011;52726;48.852;9.152;2022-09-03T05:56:47;2.45;;;1.67;;
65971;SDS011;52726;48.852;9.152;2022-09-03T05:59:12;1.48;;;1.38;;
65971;SDS011;52726;48.852;9.152;2022-09-03T06:01:39;1.85;;;1.45;;
65971;SDS011;52726;48.852;9.152;2022-09-03T06:04:10;2.30;;;1.80;;
65971;SDS011;52726;48.852;9.152;2022-09-03T06:06:38;3.08;;;1.58;;
65971;SDS011;52726;48.852;9.152;2022-09-03T06:09:09;3.83;;;1.80;;
65971;SDS011;52726;48.852;9.152;2022-09-03T06:11:42;4.22;;;1.67;;
65971;SDS011;52726;48.852;9.152;2022-09-03T06:14:10;1.58;;;1.48;;
65971;SDS011;52726;48.852;9.152;2022-09-03T06:16:40;2.25;;;1.70;;
65971;SDS011;52726;48.852;9.152;2022-09-03T06:19:07;2.42;;;1.65;;
65971;SDS011;52726;48.852;9.152;2022-09-03T06:21:37;2.70;;;1.60;;
65971;SDS011;52726;48.852;9.152;2022-09-03T06:24:07;2.05;;;1.60;;
65971;SDS011;52726;48.852;9.152;2022-09-03T06:26:34;1.38;;;1.25;;
65971;SDS011;52726;48.852;9.152;2022-09-03T06:29:00;3.70;;;1.85;;
65971;SDS011;52726;48.852;9.152;2022-09-03T06:31:25;3.63;;;1.40;;
65971;SDS011;52726;48.852;9.152;2022-09-03T06:33:51;7.15;;;1.70;;
65971;SDS011;52726;48.852;9.152;2022-09-03T06:36:18;2.05;;;1.63;;
65971;SDS011;52726;48.852;9.152;2022-09-03T06:38:45;2.08;;;1.60;;
65971;SDS011;52726;48.852;9.152;2022-09-03T06:41:15;1.58;;;1.35;;
65971;SDS011;52726;48.852;9.152;2022-09-03T06:43:49;3.72;;;1.50;;
65971;SDS011;52726;48.852;9.152;2022-09-03T06:46:18;1.67;;;1.58;;
65971;SDS011;52726;48.852;9.152;2022-09-03T06:48:48;2.75;;;1.58;;
65971;SDS011;52726;48.852;9.152;2022-09-03T06:51:18;4.43;;;1.50;;
65971;SDS011;52726;48.852;9.152;2022-09-03T06:53:46;2.92;;;1.90;;
65971;SDS011;52726;48.852;9.152;2022-09-03T06:56:14;5.78;;;2.03;;
65971;SDS011;52726;48.852;9.152;2022-09-03T06:58:57;1.92;;;1.45;;
65971;SDS011;52726;48.852;9.152;2022-09-03T07:01:25;3.03;;;1.70;;
65971;SDS011;52726;48.852;9.152;2022-09-03T07:03:53;1.75;;;1.40;;
65971;SDS011;52726;48.852;9.152;2022-09-03T07:06:21;3.83;;;1.83;;
65971;SDS011;52726;48.852;9.152;2022-09-03T07:08:47;2.80;;;1.52;;
65971;SDS011;52726;48.852;9.152;2022-09-03T07:11:13;3.22;;;1.98;;
65971;SDS011;52726;48.852;9.152;2022-09-03T07:13:42;2.05;;;1.50;;
65971;SDS011;52726;48.852;9.152;2022-09-03T07:16:54;3.67;;;1.70;;
65971;SDS011;52726;48.852;9.152;2022-09-03T07:18:59;2.05;;;1.83;;
65971;SDS011;52726;48.852;9.152;2022-09-03T07:21:26;2.67;;;1.60;;
65971;SDS011;52726;48.852;9.152;2022-09-03T07:23:53;3.58;;;1.90;;
65971;SDS011;52726;48.852;9.152;2022-09-03T07:26:23;2.92;;;2.05;;
65971;SDS011;52726;48.852;9.152;2022-09-03T07:28:50;9.20;;;1.80;;
65971;SDS011;52726;48.852;9.152;2022-09-03T07:31:19;5.47;;;2.20;;
65971;SDS011;52726;48.852;9.152;2022-09-03T07:33:50;1.80;;;1.67;;
65971;SDS011;52726;48.852;9.152;2022-09-03T07:36:19;3.60;;;1.92;;
65971;SDS011;52726;48.852;9.152;2022-09-03T07:38:46;3.13;;;1.80;;
65971;SDS011;52726;48.852;9.152;2022-09-03T07:41:12;2.53;;;1.88;;
65971;SDS011;52726;48.852;9.152;2022-09-03T07:43:40;11.25;;;2.20;;
65971;SDS011;52726;48.852;9.152;2022-09-03T07:46:16;5.05;;;1.88;;
65971;SDS011;52726;48.852;9.152;2022-09-03T07:48:47;2.50;;;1.73;;
65971;SDS011;52726;48.852;9.152;2022-09-03T07:51:23;2.05;;;1.75;;
65971;SDS011;52726;48.852;9.152;2022-09-03T07:53:51;3.30;;;1.70;;
65971;SDS011;52726;48.852;9.152;2022-09-03T07:56:18;4.97;;;1.83;;
65971;SDS011;52726;48.852;9.152;2022-09-03T07:58:44;6.90;;;2.00;;
65971;SDS011;52726;48.852;9.152;2022-09-03T08:01:12;2.58;;;1.90;;
65971;SDS011;52726;48.852;9.152;2022-09-03T08:03:43;1.80;;;1.70;;
65971;SDS011;52726;48.852;9.152;2022-09-03T08:06:10;3.17;;;1.90;;
65971;SDS011;52726;48.852;9.152;2022-09-03T08:08:37;6.38;;;2.10;;
65971;SDS011;52726;48.852;9.152;2022-09-03T08:11:05;3.28;;;1.92;;
65971;SDS011;52726;48.852;9.152;2022-09-03T08:13:42;5.30;;;1.95;;
65971;SDS011;52726;48.852;9.152;2022-09-03T08:16:13;2.92;;;1.85;;
65971;SDS011;52726;48.852;9.152;2022-09-03T08:18:42;3.60;;;1.70;;
65971;SDS011;52726;48.852;9.152;2022-09-03T08:21:15;4.50;;;1.90;;
65971;SDS011;52726;48.852;9.152;2022-09-03T08:26:12;1.65;;;1.55;;
65971;SDS011;52726;48.852;9.152;2022-09-03T08:28:39;5.10;;;1.92;;
65971;SDS011;52726;48.852;9.152;2022-09-03T08:31:07;2.25;;;1.80;;
65971;SDS011;52726;48.852;9.152;2022-09-03T08:33:35;3.83;;;2.10;;
65971;SDS011;52726;48.852;9.152;2022-09-03T08:36:06;2.33;;;1.90;;
65971;SDS011;52726;48.852;9.152;2022-09-03T08:38:40;2.88;;;1.92;;
65971;SDS011;52726;48.852;9.152;2022-09-03T08:41:11;2.40;;;1.65;;
65971;SDS011;52726;48.852;9.152;2022-09-03T08:49:03;2.80;;;2.10;;
65971;SDS011;52726;48.852;9.152;2022-09-03T08:51:30;3.05;;;1.98;;
65971;SDS011;52726;48.852;9.152;2022-09-03T08:54:01;3.78;;;2.30;;
65971;SDS011;52726;48.852;9.152;2022-09-03T08:56:29;3.67;;;2.30;;
65971;SDS011;52726;48.852;9.152;2022-09-03T08:58:57;3.08;;;2.60;;
65971;SDS011;52726;48.852;9.152;2022-09-03T09:04:34;3.05;;;2.40;;
65971;SDS011;52726;48.852;9.152;2022-09-03T09:07:17;4.53;;;2.75;;
65971;SDS011;52726;48.852;9.152;2022-09-03T09:12:42;5.30;;;2.67;;
65971;SDS011;52726;48.852;9.152;2022-09-03T09:20:47;4.75;;;2.47;;
65971;SDS011;52726;48.852;9.152;2022-09-03T09:23:20;4.93;;;2.53;;
65971;SDS011;52726;48.852;9.152;2022-09-03T09:25:53;3.22;;;2.30;;
65971;SDS011;52726;48.852;9.152;2022-09-03T09:28:25;2.60;;;2.40;;
65971;SDS011;52726;48.852;9.152;2022-09-03T09:30:57;3.28;;;2.65;;
65971;SDS011;52726;48.852;9.152;2022-09-03T09:33:25;2.67;;;2.15;;
65971;SDS011;52726;48.852;9.152;2022-09-03T09:35:51;5.30;;;2.47;;
65971;SDS011;52726;48.852;9.152;2022-09-03T09:38:26;4.78;;;2.13;;
65971;SDS011;52726;48.852;9.152;2022-09-03T09:40:56;3.10;;;2.35;;
65971;SDS011;52726;48.852;9.152;2022-09-03T09:46:22;3.38;;;2.75;;
65971;SDS011;52726;48.852;9.152;2022-09-03T09:48:55;5.65;;;2.80;;
65971;SDS011;52726;48.852;9.152;2022-09-03T09:51:28;2.35;;;1.92;;
65971;SDS011;52726;48.852;9.152;2022-09-03T09:54:02;2.10;;;1.90;;
65971;SDS011;52726;48.852;9.152;2022-09-03T09:56:43;2.85;;;1.92;;
65971;SDS011;52726;48.852;9.152;2022-09-03T09:59:09;3.72;;;2.10;;
65971;SDS011;52726;48.852;9.152;2022-09-03T10:01:37;2.10;;;1.88;;
65971;SDS011;52726;48.852;9.152;2022-09-03T10:04:11;2.72;;;2.03;;
65971;SDS011;52726;48.852;9.152;2022-09-03T10:06:41;3.60;;;1.75;;
65971;SDS011;52726;48.852;9.152;2022-09-03T10:09:25;2.50;;;2.00;;
65971;SDS011;52726;48.852;9.152;2022-09-03T10:14:46;2.22;;;2.00;;
65971;SDS011;52726;48.852;9.152;2022-09-03T10:25:33;1.85;;;1.75;;
65971;SDS011;52726;48.852;9.152;2022-09-03T10:28:09;3.10;;;1.83;;
65971;SDS011;52726;48.852;9.152;2022-09-03T10:30:44;3.22;;;1.98;;
65971;SDS011;52726;48.852;9.152;2022-09-03T10:33:38;1.90;;;1.67;;
65971;SDS011;52726;48.852;9.152;2022-09-03T10:38:50;2.60;;;1.88;;
65971;SDS011;52726;48.852;9.152;2022-09-03T10:44:28;2.13;;;1.83;;
65971;SDS011;52726;48.852;9.152;2022-09-03T11:00:53;2.05;;;1.75;;
65971;SDS011;52726;48.852;9.152;2022-09-03T11:03:34;3.55;;;2.20;;
65971;SDS011;52726;48.852;9.152;2022-09-03T11:06:24;3.60;;;1.90;;
65971;SDS011;52726;48.852;9.152;2022-09-03T11:09:00;4.30;;;1.75;;
65971;SDS011;52726;48.852;9.152;2022-09-03T11:11:40;2.10;;;1.90;;
65971;SDS011;52726;48.852;9.152;2022-09-03T11:14:09;1.98;;;1.80;;
65971;SDS011;52726;48.852;9.152;2022-09-03T11:16:42;1.90;;;1.70;;
65971;SDS011;52726;48.852;9.152;2022-09-03T11:19:15;3.35;;;2.15;;
65971;SDS011;52726;48.852;9.152;2022-09-03T11:21:44;1.90;;;1.70;;
65971;SDS011;52726;48.852;9.152;2022-09-03T11:24:16;2.58;;;1.80;;
65971;SDS011;52726;48.852;9.152;2022-09-03T11:26:49;2.97;;;1.90;;
65971;SDS011;52726;48.852;9.152;2022-09-03T11:32:00;2.30;;;2.08;;
65971;SDS011;52726;48.852;9.152;2022-09-03T11:34:45;2.67;;;2.00;;
65971;SDS011;52726;48.852;9.152;2022-09-03T11:39:43;2.80;;;2.15;;
65971;SDS011;52726;48.852;9.152;2022-09-03T11:42:10;1.90;;;1.80;;
65971;SDS011;52726;48.852;9.152;2022-09-03T11:44:45;3.45;;;2.17;;
65971;SDS011;52726;48.852;9.152;2022-09-03T11:47:15;1.70;;;1.60;;
65971;SDS011;52726;48.852;9.152;2022-09-03T11:49:49;2.80;;;2.10;;
65971;SDS011;52726;48.852;9.152;2022-09-03T11:52:29;2.40;;;2.08;;
65971;SDS011;52726;48.852;9.152;2022-09-03T11:55:04;2.15;;;1.98;;
65971;SDS011;52726;48.852;9.152;2022-09-03T11:57:31;5.15;;;2.00;;
65971;SDS011;52726;48.852;9.152;2022-09-03T12:02:57;2.15;;;1.95;;
65971;SDS011;52726;48.852;9.152;2022-09-03T12:05:36;3.08;;;2.10;;
65971;SDS011;52726;48.852;9.152;2022-09-03T12:08:35;2.83;;;2.00;;
65971;SDS011;52726;48.852;9.152;2022-09-03T12:19:03;4.28;;;2.45;;
65971;SDS011;52726;48.852;9.152;2022-09-03T12:21:37;2.50;;;2.08;;
65971;SDS011;52726;48.852;9.152;2022-09-03T12:24:04;2.27;;;2.07;;
65971;SDS011;52726;48.852;9.152;2022-09-03T12:26:29;2.22;;;1.92;;
65971;SDS011;52726;48.852;9.152;2022-09-03T12:29:03;2.13;;;2.00;;
65971;SDS011;52726;48.852;9.152;2022-09-03T12:31:31;3.78;;;2.08;;
65971;SDS011;52726;48.852;9.152;2022-09-03T12:34:11;5.03;;;2.35;;
65971;SDS011;52726;48.852;9.152;2022-09-03T12:36:40;4.35;;;2.00;;
65971;SDS011;52726;48.852;9.152;2022-09-03T12:39:17;2.53;;;1.90;;
65971;SDS011;52726;48.852;9.152;2022-09-03T12:44:26;2.67;;;2.10;;
65971;SDS011;52726;48.852;9.152;2022-09-03T12:47:04;7.43;;;2.30;;
65971;SDS011;52726;48.852;9.152;2022-09-03T12:49:37;5.05;;;3.35;;
65971;SDS011;52726;48.852;9.152;2022-09-03T12:52:06;3.33;;;1.75;;
65971;SDS011;52726;48.852;9.152;2022-09-03T12:54:38;1.88;;;1.50;;
65971;SDS011;52726;48.852;9.152;2022-09-03T12:57:08;3.33;;;1.60;;
65971;SDS011;52726;48.852;9.152;2022-09-03T12:59:45;1.90;;;1.30;;
65971;SDS011;52726;48.852;9.152;2022-09-03T13:02:14;2.88;;;1.42;;
65971;SDS011;52726;48.852;9.152;2022-09-03T13:04:45;2.55;;;1.30;;
65971;SDS011;52726;48.852;9.152;2022-09-03T13:07:20;2.95;;;1.42;;
65971;SDS011;52726;48.852;9.152;2022-09-03T13:09:50;2.38;;;1.52;;
65971;SDS011;52726;48.852;9.152;2022-09-03T13:12:23;1.73;;;1.15;;
65971;SDS011;52726;48.852;9.152;2022-09-03T13:14:54;4.63;;;1.38;;
65971;SDS011;52726;48.852;9.152;2022-09-03T13:17:25;2.30;;;1.52;;
65971;SDS011;52726;48.852;9.152;2022-09-03T13:28:28;3.47;;;1.63;;
65971;SDS011;52726;48.852;9.152;2022-09-03T13:33:43;3.70;;;1.88;;
65971;SDS011;52726;48.852;9.152;2022-09-03T13:36:18;3.30;;;1.50;;
65971;SDS011;52726;48.852;9.152;2022-09-03T13:38:52;2.58;;;1.20;;
65971;SDS011;52726;48.852;9.152;2022-09-03T13:41:37;1.50;;;1.40;;
65971;SDS011;52726;48.852;9.152;2022-09-03T13:44:13;3.65;;;1.17;;
65971;SDS011;52726;48.852;9.152;2022-09-03T13:50:00;1.75;;;1.50;;
65971;SDS011;52726;48.852;9.152;2022-09-03T13:55:48;1.08;;;1.00;;
65971;SDS011;52726;48.852;9.152;2022-09-03T13:58:36;2.88;;;1.13;;
65971;SDS011;52726;48.852;9.152;2022-09-03T14:03:57;1.50;;;1.27;;
65971;SDS011;52726;48.852;9.152;2022-09-03T14:06:43;1.52;;;1.27;;
65971;SDS011;52726;48.852;9.152;2022-09-03T14:09:19;1.30;;;1.08;;
65971;SDS011;52726;48.852;9.152;2022-09-03T14:17:36;1.95;;;1.40;;
65971;SDS011;52726;48.852;9.152;2022-09-03T14:20:16;2.80;;;1.40;;
65971;SDS011;52726;48.852;9.152;2022-09-03T14:23:02;2.60;;;1.30;;
65971;SDS011;52726;48.852;9.152;2022-09-03T14:25:31;2.13;;;1.23;;
65971;SDS011;52726;48.852;9.152;2022-09-03T14:31:06;2.67;;;1.25;;
65971;SDS011;52726;48.852;9.152;2022-09-03T14:34:07;1.50;;;1.38;;
65971;SDS011;52726;48.852;9.152;2022-09-03T14:36:51;1.45;;;1.35;;
65971;SDS011;52726;48.852;9.152;2022-09-03T14:45:11;1.33;;;1.23;;
65971;SDS011;52726;48.852;9.152;2022-09-03T14:55:55;2.33;;;1.50;;
65971;SDS011;52726;48.852;9.152;2022-09-03T15:06:15;3.40;;;1.73;;
65971;SDS011;52726;48.852;9.152;2022-09-03T15:11:19;1.42;;;1.33;;
65971;SDS011;52726;48.852;9.152;2022-09-03T15:14:02;2.13;;;1.50;;
65971;SDS011;52726;48.852;9.152;2022-09-03T15:17:02;1.40;;;1.30;;
65971;SDS011;52726;48.852;9.152;2022-09-03T15:22:30;1.42;;;1.10;;
65971;SDS011;52726;48.852;9.152;2022-09-03T15:27:43;1.52;;;1.42;;
65971;SDS011;52726;48.852;9.152;2022-09-03T15:31:04;1.55;;;1.40;;
65971;SDS011;52726;48.852;9.152;2022-09-03T15:36:05;2.47;;;1.40;;
65971;SDS011;52726;48.852;9.152;2022-09-03T15:41:30;1.38;;;1.25;;
65971;SDS011;52726;48.852;9.152;2022-09-03T15:44:00;2.53;;;1.77;;
65971;SDS011;52726;48.852;9.152;2022-09-03T15:46:44;2.15;;;1.63;;
65971;SDS011;52726;48.852;9.152;2022-09-03T15:52:25;1.77;;;1.50;;
65971;SDS011;52726;48.852;9.152;2022-09-03T15:55:13;1.55;;;1.45;;
65971;SDS011;52726;48.852;9.152;2022-09-03T16:00:58;2.13;;;1.50;;
65971;SDS011;52726;48.852;9.152;2022-09-03T16:03:43;1.50;;;1.40;;
65971;SDS011;52726;48.852;9.152;2022-09-03T16:09:04;2.65;;;1.40;;
65971;SDS011;52726;48.852;9.152;2022-09-03T16:11:50;1.83;;;1.50;;
65971;SDS011;52726;48.852;9.152;2022-09-03T16:14:23;1.88;;;1.60;;
65971;SDS011;52726;48.852;9.152;2022-09-03T16:17:13;2.53;;;1.60;;
65971;SDS011;52726;48.852;9.152;2022-09-03T16:22:25;2.70;;;1.52;;
65971;SDS011;52726;48.852;9.152;2022-09-03T16:24:59;1.70;;;1.38;;
65971;SDS011;52726;48.852;9.152;2022-09-03T16:27:31;4.03;;;1.40;;
65971;SDS011;52726;48.852;9.152;2022-09-03T16:41:10;2.40;;;1.42;;
65971;SDS011;52726;48.852;9.152;2022-09-03T16:46:24;2.15;;;1.60;;
65971;SDS011;52726;48.852;9.152;2022-09-03T16:49:10;1.38;;;1.27;;
65971;SDS011;52726;48.852;9.152;2022-09-03T16:51:42;1.70;;;1.60;;
65971;SDS011;52726;48.852;9.152;2022-09-03T16:54:29;1.77;;;1.52;;
65971;SDS011;52726;48.852;9.152;2022-09-03T17:00:09;2.42;;;1.77;;
65971;SDS011;52726;48.852;9.152;2022-09-03T17:05:48;2.10;;;1.90;;
65971;SDS011;52726;48.852;9.152;2022-09-03T17:08:24;2.72;;;2.00;;
65971;SDS011;52726;48.852;9.152;2022-09-03T17:11:02;5.00;;;1.83;;
65971;SDS011;52726;48.852;9.152;2022-09-03T17:13:40;2.55;;;1.75;;
65971;SDS011;52726;48.852;9.152;2022-09-03T17:16:28;2.50;;;1.70;;
65971;SDS011;52726;48.852;9.152;2022-09-03T17:24:28;2.58;;;1.73;;
65971;SDS011;52726;48.852;9.152;2022-09-03T17:41:46;3.20;;;1.83;;
65971;SDS011;52726;48.852;9.152;2022-09-03T17:47:26;4.38;;;2.50;;
65971;SDS011;52726;48.852;9.152;2022-09-03T17:50:16;8.27;;;4.38;;
65971;SDS011;52726;48.852;9.152;2022-09-03T17:52:50;5.80;;;2.92;;
65971;SDS011;52726;48.852;9.152;2022-09-03T17:55:31;2.80;;;2.47;;
65971;SDS011;52726;48.852;9.152;2022-09-03T18:03:29;42.20;;;5.28;;
65971;SDS011;52726;48.852;9.152;2022-09-03T18:06:05;4.78;;;2.47;;
65971;SDS011;52726;48.852;9.152;2022-09-03T18:08:40;3.50;;;1.70;;
65971;SDS011;52726;48.852;9.152;2022-09-03T18:14:14;4.07;;;2.03;;
65971;SDS011;52726;48.852;9.152;2022-09-03T18:22:27;5.15;;;2.25;;
65971;SDS011;52726;48.852;9.152;2022-09-03T18:25:18;3.58;;;2.20;;
65971;SDS011;52726;48.852;9.152;2022-09-03T18:28:08;5.28;;;2.90;;
65971;SDS011;52726;48.852;9.152;2022-09-03T18:30:55;7.50;;;2.10;;
65971;SDS011;52726;48.852;9.152;2022-09-03T18:33:39;3.83;;;2.17;;
65971;SDS011;52726;48.852;9.152;2022-09-03T18:36:23;3.95;;;2.45;;
65971;SDS011;52726;48.852;9.152;2022-09-03T18:39:15;3.15;;;2.35;;
65971;SDS011;52726;48.852;9.152;2022-09-03T18:42:04;5.50;;;2.65;;
65971;SDS011;52726;48.852;9.152;2022-09-03T18:48:13;4.03;;;2.40;;
65971;SDS011;52726;48.852;9.152;2022-09-03T18:57:04;8.00;;;2.30;;
65971;SDS011;52726;48.852;9.152;2022-09-03T19:05:50;3.20;;;2.38;;
65971;SDS011;52726;48.852;9.152;2022-09-03T19:14:59;3.70;;;2.38;;
65971;SDS011;52726;48.852;9.152;2022-09-03T19:18:35;4.35;;;2.53;;
65971;SDS011;52726;48.852;9.152;2022-09-03T19:21:34;5.13;;;2.95;;
65971;SDS011;52726;48.852;9.152;2022-09-03T19:24:25;6.30;;;2.90;;
65971;SDS011;52726;48.852;9.152;2022-09-03T19:36:51;8.20;;;2.95;;
65971;SDS011;52726;48.852;9.152;2022-09-03T19:43:01;6.25;;;2.78;;
65971;SDS011;52726;48.852;9.152;2022-09-03T19:52:43;4.40;;;2.53;;
65971;SDS011;52726;48.852;9.152;2022-09-03T19:55:05;5.28;;;2.72;;
65971;SDS011;52726;48.852;9.152;2022-09-03T19:57:52;5.85;;;2.65;;
65971;SDS011;52726;48.852;9.152;2022-09-03T20:00:40;4.97;;;2.75;;
65971;SDS011;52726;48.852;9.152;2022-09-03T20:03:25;3.65;;;2.58;;
65971;SDS011;52726;48.852;9.152;2022-09-03T20:06:09;3.55;;;2.65;;
65971;SDS011;52726;48.852;9.152;2022-09-03T20:08:55;4.22;;;2.78;;
65971;SDS011;52726;48.852;9.152;2022-09-03T20:11:47;3.38;;;2.70;;
65971;SDS011;52726;48.852;9.152;2022-09-03T20:14:13;4.47;;;2.30;;
65971;SDS011;52726;48.852;9.152;2022-09-03T20:16:46;2.97;;;2.40;;